createdAt,value
2018-03-17T00:01:35.133Z,93769.31
2018-03-17T00:04:08.393Z,93764.75
2018-03-17T00:06:42.429Z,93767.60
2018-03-17T00:09:15.675Z,93764.73
2018-03-17T00:11:48.970Z,93759.66
2018-03-17T00:14:23.000Z,93757.83
2018-03-17T01:48:02.101Z,93669.52
2018-03-17T01:50:36.121Z,93667.49
2018-03-17T01:53:10.152Z,93658.87
2018-03-17T01:55:43.416Z,93649.94
2018-03-17T01:58:16.694Z,93651.16
2018-03-17T03:31:56.818Z,93569.06
2018-03-17T03:34:30.084Z,93565.31
2018-03-17T03:37:04.128Z,93567.14
2018-03-17T03:39:37.378Z,93561.27
2018-03-17T03:42:10.657Z,93557.82
2018-03-17T03:44:43.909Z,93551.54
2018-03-17T04:45:53.807Z,93529.09
2018-03-17T04:48:27.834Z,93527.27
2018-03-17T04:51:01.089Z,93522.69
2018-03-17T04:53:34.341Z,93520.47
2018-03-17T04:56:07.589Z,93514.77
2018-03-17T04:58:41.622Z,93516.19
2018-03-17T06:03:03.334Z,93474.59
2018-03-17T06:05:36.608Z,93462.92
2018-03-17T06:08:09.849Z,93464.73
2018-03-17T06:10:43.100Z,93465.16
2018-03-17T06:13:16.372Z,93466.67
2018-03-17T06:16:08.269Z,93462.00
2018-03-17T06:18:41.514Z,93462.81
2018-03-17T06:21:14.790Z,93459.98
2018-03-17T06:23:48.797Z,93453.19
2018-03-17T06:26:22.829Z,93449.86
2018-03-17T06:28:56.086Z,93448.44
2018-03-17T06:31:29.366Z,93450.90
2018-03-17T06:34:02.609Z,93443.29
2018-03-17T06:36:35.900Z,93440.74
2018-03-17T06:39:10.011Z,93438.90
2018-03-17T06:41:44.046Z,93434.84
2018-03-17T06:44:17.315Z,93430.27
2018-03-17T06:46:51.338Z,93437.67
2018-03-17T06:49:24.582Z,93433.86
2018-03-17T06:51:57.845Z,93428.90
2018-03-17T06:54:31.085Z,93426.95
2018-03-17T06:57:04.373Z,93425.91
2018-03-17T06:59:37.616Z,93425.44
2018-03-17T07:02:10.885Z,93432.09
2018-03-17T07:04:44.133Z,93426.13
2018-03-17T07:07:17.401Z,93415.70
2018-03-17T07:09:50.644Z,93417.62
2018-03-17T07:12:23.912Z,93413.56
2018-03-17T07:14:57.164Z,93406.14
2018-03-17T07:17:30.450Z,93404.53
2018-03-17T07:20:04.462Z,93407.48
2018-03-17T07:22:38.517Z,93416.02
2018-03-17T07:25:11.757Z,93409.41
2018-03-17T07:27:45.018Z,93416.59
2018-03-17T07:30:18.292Z,93412.73
2018-03-17T07:32:51.545Z,93414.30
2018-03-17T07:35:24.817Z,93415.09
2018-03-17T07:37:58.078Z,93405.95
2018-03-17T07:40:31.356Z,93409.29
2018-03-17T07:43:04.612Z,93407.07
2018-03-17T07:45:37.879Z,93409.09
2018-03-17T07:48:11.122Z,93405.05
2018-03-17T07:50:44.402Z,93405.34
2018-03-17T07:53:18.419Z,93411.43
2018-03-17T07:55:52.474Z,93406.08
2018-03-17T07:58:25.722Z,93402.03
2018-03-17T08:00:59.873Z,93393.39
2018-03-17T08:03:33.120Z,93396.86
2018-03-17T08:06:07.166Z,93395.95
2018-03-17T08:08:40.412Z,93401.41
2018-03-17T08:11:13.785Z,93396.84
2018-03-17T08:13:47.034Z,93400.80
2018-03-17T08:16:20.322Z,93397.74
2018-03-17T08:18:54.345Z,93392.56
2018-03-17T08:21:27.720Z,93389.34
2018-03-17T08:24:01.734Z,93394.30
2018-03-17T08:26:35.018Z,93390.81
2018-03-17T08:29:08.354Z,93385.20
2018-03-17T08:31:41.827Z,93392.11
2018-03-17T08:34:15.330Z,93382.05
2018-03-17T08:36:48.754Z,93382.56
2018-03-17T08:39:23.129Z,93374.54
2018-03-17T08:41:57.426Z,93379.01
2018-03-17T08:44:30.908Z,93367.76
2018-03-17T08:47:06.932Z,93370.09
2018-03-17T08:49:40.451Z,93366.84
2018-03-17T08:52:13.980Z,93368.86
2018-03-17T08:54:48.243Z,93367.44
2018-03-17T08:57:21.670Z,93363.99
2018-03-17T08:59:55.702Z,93367.44
2018-03-17T09:02:29.087Z,93368.75
2018-03-17T09:05:02.514Z,93359.02
2018-03-17T09:07:35.875Z,93361.76
2018-03-17T09:10:10.031Z,93365.31
2018-03-17T09:12:44.767Z,93369.56
2018-03-17T09:15:19.513Z,93370.16
2018-03-17T09:17:53.949Z,93363.86
2018-03-17T09:20:28.437Z,93360.61
2018-03-17T09:23:02.355Z,93358.70
2018-03-17T09:25:36.294Z,93355.34
2018-03-17T09:28:11.899Z,93357.84
2018-03-17T09:30:45.617Z,93359.05
2018-03-17T09:33:20.679Z,93357.34
2018-03-17T09:35:54.361Z,93354.27
2018-03-17T09:38:28.382Z,93352.13
2018-03-17T09:41:03.306Z,93348.24
2018-03-17T09:43:37.997Z,93343.59
2018-03-17T09:46:12.416Z,93343.59
2018-03-17T09:48:47.474Z,93333.41
2018-03-17T09:51:22.623Z,93340.30
2018-03-17T09:53:56.957Z,93329.42
2018-03-17T09:56:30.508Z,93330.63
2018-03-17T09:59:04.040Z,93329.83
2018-03-17T10:01:38.537Z,93329.02
2018-03-17T10:04:12.526Z,93317.77
2018-03-17T10:06:45.925Z,93322.23
2018-03-17T10:09:19.427Z,93316.55
2018-03-17T10:11:52.773Z,93319.59
2018-03-17T10:14:26.869Z,93323.37
2018-03-17T10:17:00.242Z,93314.45
2018-03-17T10:19:33.645Z,93314.23
2018-03-17T10:22:07.199Z,93309.48
2018-03-17T10:24:40.766Z,93313.33
2018-03-17T10:27:15.091Z,93307.23
2018-03-17T10:29:49.334Z,93301.27
2018-03-17T10:32:22.862Z,93290.82
2018-03-17T10:34:56.584Z,93290.34
2018-03-17T10:37:31.843Z,93284.25
2018-03-17T10:40:05.431Z,93283.66
2018-03-17T10:42:39.729Z,93274.02
2018-03-17T10:45:13.773Z,93270.28
2018-03-17T10:47:49.109Z,93268.97
2018-03-17T10:50:24.285Z,93268.64
2018-03-17T10:52:57.817Z,93263.87
2018-03-17T10:55:31.546Z,93270.47
2018-03-17T10:58:08.266Z,93257.20
2018-03-17T11:00:47.384Z,93258.05
2018-03-17T11:03:20.878Z,93263.64
2018-03-17T11:05:55.239Z,93260.00
2018-03-17T11:08:31.574Z,93249.78
2018-03-17T11:11:05.277Z,93254.55
2018-03-17T11:13:38.778Z,93258.83
2018-03-17T11:16:12.233Z,93256.99
2018-03-17T11:18:45.724Z,93249.70
2018-03-17T11:21:20.227Z,93253.03
2018-03-17T11:23:53.672Z,93250.13
2018-03-17T11:26:28.046Z,93241.84
2018-03-17T11:29:01.620Z,93242.54
2018-03-17T11:31:35.837Z,93246.92
2018-03-17T11:34:10.494Z,93242.16
2018-03-17T11:36:44.338Z,93250.29
2018-03-17T11:39:17.994Z,93239.45
2018-03-17T11:41:53.650Z,93240.66
2018-03-17T11:44:27.254Z,93228.61
2018-03-17T11:47:00.884Z,93231.05
2018-03-17T11:49:35.188Z,93233.58
2018-03-17T11:52:09.692Z,93232.98
2018-03-17T11:54:43.217Z,93231.19
2018-03-17T11:57:17.455Z,93230.08
2018-03-17T11:59:50.958Z,93224.52
2018-03-17T12:02:24.292Z,93229.17
2018-03-17T12:04:57.717Z,93219.84
2018-03-17T12:07:31.376Z,93212.22
2018-03-17T12:10:05.687Z,93216.98
2018-03-17T12:12:40.844Z,93207.98
2018-03-17T12:15:14.759Z,93208.59
2018-03-17T12:17:48.396Z,93215.29
2018-03-17T12:20:21.928Z,93205.34
2018-03-17T12:22:58.885Z,93198.45
2018-03-17T12:25:33.324Z,93198.85
2018-03-17T12:28:16.202Z,93207.05
2018-03-17T12:30:49.872Z,93206.25
2018-03-17T12:33:23.356Z,93204.93
2018-03-17T12:35:57.606Z,93188.20
2018-03-17T12:38:31.048Z,93185.78
2018-03-17T12:41:05.311Z,93180.41
2018-03-17T12:43:38.644Z,93185.38
2018-03-17T12:46:11.998Z,93186.80
2018-03-17T12:48:45.312Z,93192.07
2018-03-17T12:51:18.651Z,93193.61
2018-03-17T12:53:52.019Z,93192.80
2018-03-17T12:56:25.362Z,93197.67
2018-03-17T12:58:59.471Z,93184.89
2018-03-17T13:01:33.559Z,93191.19
2018-03-17T13:04:06.913Z,93184.70
2018-03-17T13:06:40.356Z,93182.98
2018-03-17T13:09:13.782Z,93197.17
2018-03-17T13:11:47.559Z,93198.52
2018-03-17T13:14:21.069Z,93188.20
2018-03-17T13:16:54.583Z,93191.34
2018-03-17T13:19:33.085Z,93184.35
2018-03-17T13:22:06.638Z,93190.53
2018-03-17T13:24:40.016Z,93189.70
2018-03-17T13:27:31.129Z,93182.81
2018-03-17T13:30:04.574Z,93185.98
2018-03-17T13:32:56.173Z,93184.48
2018-03-17T13:35:47.422Z,93179.61
2018-03-17T13:38:20.941Z,93177.70
2018-03-17T13:40:56.205Z,93173.75
2018-03-17T13:43:29.642Z,93176.78
2018-03-17T13:46:03.002Z,93174.96
2018-03-17T13:48:36.259Z,93181.84
2018-03-17T13:51:10.387Z,93168.88
2018-03-17T13:53:44.402Z,93166.06
2018-03-17T13:56:17.695Z,93163.09
2018-03-17T13:58:50.958Z,93171.33
2018-03-17T14:01:24.281Z,93167.88
2018-03-17T14:03:58.358Z,93172.75
2018-03-17T14:06:31.690Z,93170.63
2018-03-17T14:09:04.978Z,93167.38
2018-03-17T14:11:39.051Z,93178.20
2018-03-17T14:14:12.355Z,93174.17
2018-03-17T14:16:45.648Z,93170.03
2018-03-17T14:19:18.939Z,93170.75
2018-03-17T14:21:52.284Z,93176.83
2018-03-17T14:24:25.607Z,93160.12
2018-03-17T14:26:59.690Z,93169.16
2018-03-17T14:29:33.063Z,93173.11
2018-03-17T14:32:07.179Z,93164.72
2018-03-17T14:34:40.482Z,93164.42
2018-03-17T14:37:13.730Z,93165.84
2018-03-17T14:39:47.011Z,93161.59
2018-03-17T14:42:20.471Z,93162.61
2018-03-17T14:44:54.556Z,93157.96
2018-03-17T14:47:28.112Z,93159.28
2018-03-17T14:50:01.419Z,93154.41
2018-03-17T14:52:34.692Z,93160.59
2018-03-17T14:55:07.946Z,93170.62
2018-03-17T14:57:41.236Z,93163.34
2018-03-17T15:00:14.527Z,93160.69
2018-03-17T15:02:47.777Z,93163.23
2018-03-17T15:05:21.060Z,93161.73
2018-03-17T15:07:54.338Z,93165.59
2018-03-17T15:10:27.627Z,93163.98
2018-03-17T15:13:00.873Z,93172.27
2018-03-17T15:15:34.169Z,93165.02
2018-03-17T15:18:07.442Z,93169.58
2018-03-17T15:20:40.690Z,93163.50
2018-03-17T15:23:13.985Z,93169.48
2018-03-17T15:25:47.229Z,93169.38
2018-03-17T15:28:20.506Z,93162.49
2018-03-17T15:30:53.771Z,93161.47
2018-03-17T15:33:27.042Z,93168.48
2018-03-17T15:36:00.291Z,93170.81
2018-03-17T15:38:33.567Z,93170.20
2018-03-17T15:41:06.841Z,93174.04
2018-03-17T15:43:40.090Z,93177.59
2018-03-17T15:46:13.390Z,93172.13
2018-03-17T15:48:46.623Z,93170.42
2018-03-17T15:51:19.897Z,93177.19
2018-03-17T15:53:53.155Z,93177.80
2018-03-17T15:56:26.422Z,93174.38
2018-03-17T15:58:59.674Z,93173.67
2018-03-17T16:01:32.948Z,93172.67
2018-03-17T16:04:06.199Z,93176.71
2018-03-17T16:06:39.502Z,93176.01
2018-03-17T16:09:12.786Z,93186.94
2018-03-17T16:11:46.036Z,93183.70
2018-03-17T16:14:19.302Z,93182.00
2018-03-17T16:16:52.606Z,93179.05
2018-03-17T16:19:25.974Z,93185.75
2018-03-17T16:22:00.066Z,93187.78
2018-03-17T16:24:34.173Z,93185.97
2018-03-17T16:27:07.482Z,93194.84
2018-03-17T16:29:40.815Z,93192.72
2018-03-17T16:32:14.193Z,93192.73
2018-03-17T16:34:48.261Z,93195.46
2018-03-17T16:37:21.622Z,93202.95
2018-03-17T16:39:54.935Z,93203.74
2018-03-17T16:42:28.205Z,93197.98
2018-03-17T16:45:01.592Z,93203.16
2018-03-17T16:47:34.906Z,93203.16
2018-03-17T16:50:08.291Z,93207.70
2018-03-17T16:52:41.622Z,93213.77
2018-03-17T16:55:14.979Z,93203.95
2018-03-17T16:57:48.278Z,93206.98
2018-03-17T17:00:21.667Z,93206.99
2018-03-17T17:02:54.933Z,93209.32
2018-03-17T17:05:28.213Z,93216.70
2018-03-17T17:08:01.470Z,93210.72
2018-03-17T17:10:34.766Z,93213.55
2018-03-17T17:13:08.021Z,93214.27
2018-03-17T17:15:42.059Z,93220.02
2018-03-17T17:18:15.312Z,93225.87
2018-03-17T17:20:48.589Z,93218.30
2018-03-17T17:23:21.865Z,93232.36
2018-03-17T17:25:55.130Z,93229.30
2018-03-17T17:28:28.410Z,93226.16
2018-03-17T17:31:01.694Z,93235.67
2018-03-17T17:33:35.721Z,93238.70
2018-03-17T17:36:09.003Z,93227.58
2018-03-17T17:38:42.279Z,93235.37
2018-03-17T17:41:15.567Z,93240.73
2018-03-17T17:43:48.805Z,93244.44
2018-03-17T17:46:22.090Z,93251.34
2018-03-17T17:48:55.335Z,93252.15
2018-03-17T17:51:28.607Z,93249.63
2018-03-17T17:54:01.856Z,93244.64
2018-03-17T17:56:35.942Z,93244.34
2018-03-17T17:59:09.175Z,93254.75
2018-03-17T18:01:42.460Z,93247.77
2018-03-17T18:04:15.710Z,93259.09
2018-03-17T18:06:49.028Z,93254.14
2018-03-17T18:09:22.285Z,93258.19
2018-03-17T18:11:55.599Z,93257.17
2018-03-17T18:14:28.877Z,93259.70
2018-03-17T18:17:02.200Z,93262.40
2018-03-17T18:19:35.459Z,93259.97
2018-03-17T18:22:08.788Z,93261.19
2018-03-17T18:24:42.068Z,93262.30
2018-03-17T18:27:15.863Z,93268.42
2018-03-17T18:29:49.190Z,93266.30
2018-03-17T18:32:22.441Z,93265.59
2018-03-17T18:34:55.717Z,93261.75
2018-03-17T18:37:28.994Z,93268.69
2018-03-17T18:40:02.255Z,93268.48
2018-03-17T18:42:35.521Z,93268.89
2018-03-17T18:45:08.801Z,93276.53
2018-03-17T18:47:42.168Z,93280.16
2018-03-17T18:50:16.195Z,93279.95
2018-03-17T18:52:49.468Z,93279.04
2018-03-17T18:55:23.517Z,93274.27
2018-03-17T18:57:59.962Z,93275.67
2018-03-17T19:00:37.500Z,93280.66
2018-03-17T19:03:12.538Z,93284.50
2018-03-17T19:05:46.497Z,93283.08
2018-03-17T19:08:23.980Z,93292.48
2018-03-17T19:11:02.223Z,93296.32
2018-03-17T19:13:37.958Z,93286.42
2018-03-17T19:16:15.047Z,93283.80
2018-03-17T19:18:49.493Z,93287.89
2018-03-17T19:21:25.249Z,93299.09
2018-03-17T19:26:40.761Z,93288.09
2018-03-17T19:32:14.682Z,93303.23
2018-03-17T19:34:48.885Z,93291.20
2018-03-17T19:37:23.125Z,93291.07
2018-03-17T19:39:57.237Z,93296.21
2018-03-17T19:42:30.578Z,93296.41
2018-03-17T19:45:04.665Z,93297.62
2018-03-17T19:47:37.954Z,93298.53
2018-03-17T19:50:11.205Z,93296.81
2018-03-17T19:52:44.479Z,93285.11
2018-03-17T19:55:17.727Z,93291.05
2018-03-17T19:57:50.996Z,93293.78
2018-03-17T20:00:24.254Z,93290.75
2018-03-17T20:02:57.622Z,93291.56
2018-03-17T20:05:30.873Z,93292.27
2018-03-17T20:08:04.142Z,93289.55
2018-03-17T20:10:38.182Z,93286.52
2018-03-17T20:13:11.475Z,93287.32
2018-03-17T20:15:44.737Z,93283.28
2018-03-17T20:18:18.009Z,93291.88
2018-03-17T20:20:51.294Z,93283.58
2018-03-17T20:23:24.574Z,93290.15
2018-03-17T20:25:57.931Z,93289.30
2018-03-17T20:28:31.278Z,93298.07
2018-03-17T20:31:04.555Z,93295.34
2018-03-17T20:33:37.798Z,93286.95
2018-03-17T20:36:11.953Z,93299.06
2018-03-17T20:38:45.326Z,93298.66
2018-03-17T20:41:18.746Z,93296.30
2018-03-17T20:43:52.110Z,93309.41
2018-03-17T20:46:25.488Z,93303.55
2018-03-17T20:48:59.591Z,93311.12
2018-03-17T20:51:33.653Z,93299.41
2018-03-17T20:54:06.906Z,93304.34
2018-03-17T20:56:40.952Z,93303.20
2018-03-17T20:59:14.230Z,93306.23
2018-03-17T21:01:47.496Z,93307.13
2018-03-17T21:04:20.779Z,93301.06
2018-03-17T21:06:54.025Z,93312.62
2018-03-17T21:09:27.318Z,93302.33
2018-03-17T21:12:00.573Z,93303.02
2018-03-17T21:14:33.874Z,93298.77
2018-03-17T21:17:07.898Z,93308.05
2018-03-17T21:19:41.165Z,93311.53
2018-03-17T21:22:14.410Z,93312.11
2018-03-17T21:24:47.707Z,93317.65
2018-03-17T21:27:20.964Z,93316.44
2018-03-17T21:29:55.006Z,93293.09
2018-03-17T21:32:28.262Z,93302.05
2018-03-17T21:35:01.590Z,93317.20
2018-03-17T21:37:34.823Z,93309.44
2018-03-17T21:40:08.117Z,93313.68
2018-03-17T21:42:41.365Z,93313.97
2018-03-17T21:45:14.642Z,93312.56
2018-03-17T21:47:47.915Z,93314.16
2018-03-17T21:50:21.937Z,93313.86
2018-03-17T21:52:55.212Z,93311.23
2018-03-17T21:55:28.458Z,93310.92
2018-03-17T21:58:01.742Z,93316.02
2018-03-17T22:00:35.006Z,93314.81
2018-03-17T22:03:08.282Z,93315.00
2018-03-17T22:05:41.543Z,93314.59
2018-03-17T22:08:14.823Z,93316.42
2018-03-17T22:10:48.088Z,93310.97
2018-03-17T22:13:21.365Z,93316.93
2018-03-17T22:15:54.630Z,93322.58
2018-03-17T22:18:27.877Z,93326.84
2018-03-17T22:21:01.915Z,93325.34
2018-03-17T22:23:35.169Z,93327.92
2018-03-17T22:26:08.450Z,93333.47
2018-03-17T22:28:41.703Z,93338.31
2018-03-17T22:31:14.975Z,93329.20
2018-03-17T22:33:48.226Z,93342.39
2018-03-17T22:36:21.502Z,93336.00
2018-03-17T22:38:54.750Z,93336.59
2018-03-17T22:41:28.801Z,93337.50
2018-03-17T22:44:02.111Z,93338.22
2018-03-17T22:46:35.358Z,93330.73
2018-03-17T22:49:08.614Z,93329.83
2018-03-17T22:51:41.893Z,93329.42
2018-03-17T22:54:15.181Z,93333.55
2018-03-17T22:56:48.438Z,93326.99
2018-03-17T22:59:21.723Z,93330.52
2018-03-17T23:01:55.745Z,93325.97
2018-03-17T23:04:29.042Z,93323.30
2018-03-17T23:07:02.298Z,93331.55
2018-03-17T23:09:35.591Z,93326.25
2018-03-17T23:12:08.837Z,93333.16
2018-03-17T23:14:42.126Z,93336.97
2018-03-17T23:17:15.374Z,93328.08
2018-03-17T23:19:48.652Z,93328.84
2018-03-17T23:22:21.917Z,93325.91
2018-03-17T23:24:55.203Z,93333.55
2018-03-17T23:27:28.457Z,93320.45
2018-03-17T23:30:01.753Z,93331.31
2018-03-17T23:32:35.773Z,93338.05
2018-03-17T23:35:09.815Z,93316.87
2018-03-17T23:37:43.090Z,93335.22
2018-03-17T23:40:16.336Z,93339.77
2018-03-17T23:42:49.641Z,93343.00
2018-03-17T23:45:22.907Z,93343.20
2018-03-17T23:47:56.197Z,93340.48
2018-03-17T23:50:29.448Z,93345.72
2018-03-17T23:53:03.505Z,93340.41
2018-03-17T23:55:36.757Z,93342.81
2018-03-17T23:58:10.814Z,93342.60
